Montgomery, Louisiana
Current Conditions -  °F | °C
As of 5:15 AM on Saturday 01 Nov 2014 (Local Time) from KIER Reporting Station
Clear Clear  
Wind Chill: 37°   Ceiling: Unl
Heat Index: 42°   Visibility: 10mi
Dew Point: 31°   Wind: 7mph
Humidity: 65%   Direction: 40°NE
Pressure: 30.36"   Gusts: NA
Location:  31.67°N, 92.89°W
Report Text: KIER 011015Z AUTO 04006KT 10SM CLR 06/M01 A3036 RMK AO2 T00551007
Loading
Personal Weather Stations






























Interactive Weather Map
Tropical Storm Tracking
New forecast layout! Learn more

10-Day Weather Forecast

Advertisements
Track Severe Weather on mobile